Time;durP1;ratioP1;P1;durP2;ratioP2;P2;SDS_P1;SDS_P2;PMS_P1;PMS_P2;Temp;Humidity;BMP_temperature;BMP_pressure;BME280_temperature;BME280_humidity;BME280_pressure;Samples;Min_cycle;Max_cycle;Signal;HPM_P1;HPM_P2
2024/04/14 00:00:04;;;;;;;3.40;2.70;;;;;;;10.84;100.00;93711.69;2090059;28;20032;-84
2024/04/14 00:01:06;;;;;;;3.08;2.78;;;;;;;10.80;100.00;93710.97;2100174;28;20463;-84
2024/04/14 00:02:07;;;;;;;2.67;2.45;;;;;;;10.77;100.00;93711.03;2107030;28;20047;-80
2024/04/14 00:03:08;;;;;;;4.78;2.55;;;;;;;10.80;100.00;93707.56;2106779;28;20495;-83
2024/04/14 00:04:09;;;;;;;7.15;2.83;;;;;;;10.77;100.00;93711.03;2098461;28;20112;-82
2024/04/14 00:05:10;;;;;;;3.22;2.63;;;;;;;10.79;100.00;93712.13;2091760;28;20047;-80
2024/04/14 00:06:11;;;;;;;3.33;2.50;;;;;;;10.67;100.00;93703.88;2090088;28;20032;-84
2024/04/14 00:07:15;;;;;;;3.20;2.47;;;;;;;10.67;100.00;93709.22;2089934;28;20049;-81
2024/04/14 00:08:16;;;;;;;5.05;2.90;;;;;;;10.76;100.00;93706.84;2074419;28;20026;-85
2024/04/14 00:09:17;;;;;;;6.65;2.50;;;;;;;10.64;100.00;93707.38;2090080;28;20021;-83
2024/04/14 00:10:18;;;;;;;5.38;2.72;;;;;;;10.68;100.00;93705.41;2098315;28;20024;-83
2024/04/14 00:11:19;;;;;;;2.40;2.15;;;;;;;10.79;100.00;93703.34;2081516;28;20029;-82
2024/04/14 00:12:20;;;;;;;2.60;2.40;;;;;;;10.63;100.00;93703.19;2081675;28;20032;-82
2024/04/14 00:13:21;;;;;;;4.45;2.58;;;;;;;10.70;100.00;93708.44;2081714;28;20021;-82
2024/04/14 00:14:26;;;;;;;4.93;2.70;;;;;;;10.70;100.00;93708.44;2081840;28;20032;-82
2024/04/14 00:15:27;;;;;;;4.63;2.58;;;;;;;10.74;100.00;93709.16;2090439;28;20032;-81
2024/04/14 00:16:31;;;;;;;4.07;2.22;;;;;;;10.60;100.00;93702.06;2082215;28;20045;-81
2024/04/14 00:17:33;;;;;;;5.15;2.65;;;;;;;10.55;100.00;93700.59;2083247;28;20550;-82
2024/04/14 00:18:34;;;;;;;4.03;2.42;;;;;;;10.58;100.00;93699.03;2089964;28;20501;-82
2024/04/14 00:19:35;;;;;;;3.65;2.60;;;;;;;10.69;100.00;93701.56;2090107;28;20028;-81
2024/04/14 00:20:36;;;;;;;2.63;2.30;;;;;;;10.73;100.00;93712.97;2105009;28;20089;-82
2024/04/14 00:21:37;;;;;;;2.47;2.28;;;;;;;10.87;100.00;93704.78;2106183;28;20028;-81
2024/04/14 00:22:40;;;;;;;2.50;2.30;;;;;;;10.83;100.00;93706.72;2098077;28;20024;-83
2024/04/14 00:23:41;;;;;;;3.65;2.33;;;;;;;10.95;100.00;93708.13;2090663;28;20036;-84
2024/04/14 00:24:42;;;;;;;4.32;2.50;;;;;;;10.78;100.00;93712.53;2089966;28;20420;-83
2024/04/14 00:25:43;;;;;;;4.45;2.60;;;;;;;10.77;100.00;93703.75;2092241;28;20033;-85
2024/04/14 00:26:48;;;;;;;3.78;2.85;;;;;;;10.64;100.00;93702.03;2098154;28;20039;-83
2024/04/14 00:27:49;;;;;;;4.47;2.60;;;;;;;10.67;100.00;93701.19;2098572;28;20127;-80
2024/04/14 00:28:50;;;;;;;3.50;2.50;;;;;;;10.63;100.00;93703.19;2089331;28;20037;-84
2024/04/14 00:29:51;;;;;;;2.65;2.45;;;;;;;10.31;100.00;93704.31;2098179;28;20024;-81
2024/04/14 00:30:52;;;;;;;3.47;2.70;;;;;;;10.48;100.00;93698.00;2094309;28;20106;-85
2024/04/14 00:31:53;;;;;;;4.75;2.70;;;;;;;10.46;100.00;93705.66;2089764;28;20064;-84
2024/04/14 00:32:54;;;;;;;2.67;2.35;;;;;;;10.43;100.00;93703.03;2081468;28;20037;-84
2024/04/14 00:33:55;;;;;;;2.50;2.30;;;;;;;10.34;100.00;93700.84;2090167;28;20414;-80
2024/04/14 00:34:56;;;;;;;2.70;2.38;;;;;;;10.40;100.00;93701.91;2097941;28;20138;-86
2024/04/14 00:35:57;;;;;;;2.85;2.55;;;;;;;10.37;100.00;93701.97;2081492;28;20036;-83
2024/04/14 00:36:59;;;;;;;3.45;2.70;;;;;;;10.34;100.00;93703.50;2073510;28;20048;-82
2024/04/14 00:38:01;;;;;;;3.25;2.70;;;;;;;10.23;100.00;93700.19;2073352;28;20792;-81
2024/04/14 00:39:03;;;;;;;2.60;2.40;;;;;;;10.27;100.00;93707.03;2073548;28;20036;-81
2024/04/14 00:40:05;;;;;;;3.00;2.75;;;;;;;10.34;100.00;93704.28;2090255;28;20060;-82
2024/04/14 00:41:06;;;;;;;3.08;2.58;;;;;;;10.35;100.00;93707.69;2089141;28;20143;-81
2024/04/14 00:42:07;;;;;;;2.50;2.28;;;;;;;10.34;100.00;93701.59;2081433;28;20080;-82
2024/04/14 00:43:14;;;;;;;4.03;2.80;;;;;;;10.35;100.00;93697.00;2081050;28;20470;-84
2024/04/14 00:44:15;;;;;;;3.33;2.55;;;;;;;10.37;100.00;93704.63;2079814;28;20885;-84
2024/04/14 00:45:16;;;;;;;3.85;2.47;;;;;;;10.41;100.00;93698.09;2098169;28;20060;-83
2024/04/14 00:46:17;;;;;;;3.22;2.40;;;;;;;10.35;100.00;93697.00;2089876;28;20090;-80
2024/04/14 00:47:18;;;;;;;2.53;2.33;;;;;;;10.41;100.00;93703.44;2106440;28;20023;-85
2024/04/14 00:48:21;;;;;;;3.22;2.70;;;;;;;10.29;100.00;93701.28;2106268;28;20016;-83
2024/04/14 00:49:23;;;;;;;2.88;2.50;;;;;;;10.14;100.00;93705.22;2090560;28;20673;-83
2024/04/14 00:50:26;;;;;;;2.60;2.40;;;;;;;10.23;100.00;93695.59;2081671;28;20108;-83
2024/04/14 00:51:33;;;;;;;4.47;2.65;;;;;;;10.24;100.00;93701.69;2075036;28;20034;-83
2024/04/14 00:52:34;;;;;;;3.80;2.60;;;;;;;10.24;100.00;93696.34;2074250;28;20029;-85
2024/04/14 00:53:35;;;;;;;2.88;2.58;;;;;;;10.30;100.00;93697.44;2089824;28;20028;-84
2024/04/14 00:54:36;;;;;;;3.55;2.63;;;;;;;10.17;100.00;93699.09;2081422;28;20044;-85
2024/04/14 00:55:38;;;;;;;4.50;2.83;;;;;;;10.23;100.00;93697.50;2079920;28;20032;-83
2024/04/14 00:56:40;;;;;;;3.42;3.00;;;;;;;10.26;100.00;93689.47;2073618;28;20074;-83
2024/04/14 00:57:42;;;;;;;3.05;2.72;;;;;;;10.34;100.00;93687.47;2081545;28;20120;-83
2024/04/14 00:58:44;;;;;;;3.85;2.65;;;;;;;10.38;100.00;93692.78;2089926;28;20104;-82
2024/04/14 00:59:45;;;;;;;3.63;2.70;;;;;;;10.27;100.00;93691.00;2089629;28;20116;-84
2024/04/14 01:00:47;;;;;;;3.75;2.58;;;;;;;10.20;100.00;93692.97;2089641;28;20543;-83
2024/04/14 01:01:48;;;;;;;3.33;3.03;;;;;;;10.21;100.00;93695.22;2089406;28;20032;-82
2024/04/14 01:02:53;;;;;;;2.70;2.42;;;;;;;10.09;100.00;93691.16;2081385;28;20040;-81
2024/04/14 01:03:54;;;;;;;3.63;2.83;;;;;;;10.18;100.00;93684.56;2093279;28;20033;-82
2024/04/14 01:04:55;;;;;;;2.72;2.47;;;;;;;10.32;100.00;93689.81;2081520;28;20017;-81
2024/04/14 01:05:59;;;;;;;2.75;2.47;;;;;;;10.10;100.00;93689.25;2081447;28;20036;-84
2024/04/14 01:07:01;;;;;;;3.10;2.50;;;;;;;10.14;100.00;93692.66;2082531;28;20017;-84
2024/04/14 01:08:02;;;;;;;3.28;2.17;;;;;;;10.19;100.00;93688.78;2097391;28;20055;-84
2024/04/14 01:09:03;;;;;;;3.15;2.70;;;;;;;9.98;100.00;93689.75;2106319;28;20110;-86
2024/04/14 01:10:05;;;;;;;3.60;2.75;;;;;;;9.94;100.00;93692.47;2097804;28;20024;-85
2024/04/14 01:11:06;;;;;;;2.70;2.50;;;;;;;10.00;100.00;93690.09;2098023;28;20170;-83
2024/04/14 01:12:08;;;;;;;4.00;2.40;;;;;;;10.04;100.00;93688.16;2097845;28;20560;-85
2024/04/14 01:13:09;;;;;;;4.60;2.30;;;;;;;9.94;100.00;93689.03;2106046;28;20083;-85
2024/04/14 01:14:10;;;;;;;2.58;2.38;;;;;;;10.07;100.00;93684.69;2106335;28;20111;-81
2024/04/14 01:15:11;;;;;;;2.42;2.22;;;;;;;9.99;100.00;93686.69;2097834;28;20060;-84
2024/04/14 01:16:12;;;;;;;4.22;2.80;;;;;;;9.98;100.00;93684.41;2097724;28;20552;-84
2024/04/14 01:17:13;;;;;;;3.15;2.70;;;;;;;10.00;100.00;93685.53;2097816;28;20031;-82
2024/04/14 01:18:16;;;;;;;5.18;2.63;;;;;;;9.88;100.00;93682.59;2098025;28;20024;-82
2024/04/14 01:19:17;;;;;;;2.45;2.25;;;;;;;9.94;100.00;93676.44;2090063;28;20123;-85
2024/04/14 01:20:18;;;;;;;4.68;2.60;;;;;;;10.03;100.00;93684.72;2097829;28;20032;-82
2024/04/14 01:21:19;;;;;;;2.53;2.33;;;;;;;9.83;100.00;93679.22;2097976;28;20047;-83
2024/04/14 01:22:20;;;;;;;3.08;2.58;;;;;;;9.87;100.00;93676.50;2105840;28;20376;-81
2024/04/14 01:23:21;;;;;;;4.32;2.47;;;;;;;9.84;100.00;93675.41;2098296;28;20024;-84
2024/04/14 01:24:22;;;;;;;5.30;2.70;;;;;;;9.67;100.00;93688.91;2081394;28;20031;-85
2024/04/14 01:25:24;;;;;;;4.35;2.20;;;;;;;9.87;100.00;93678.41;2081348;28;20033;-82
2024/04/14 01:26:25;;;;;;;3.63;2.40;;;;;;;9.80;100.00;93677.34;2081414;28;20320;-81
2024/04/14 01:27:26;;;;;;;2.67;2.35;;;;;;;9.89;100.00;93684.88;2080822;28;20096;-82
2024/04/14 01:28:26;;;;;;;5.00;2.55;;;;;;;9.81;100.00;93680.75;2073009;28;20030;-81
2024/04/14 01:29:27;;;;;;;3.30;2.50;;;;;;;9.67;100.00;93673.66;2073094;28;20038;-84
2024/04/14 01:30:28;;;;;;;3.40;2.55;;;;;;;9.71;100.00;93676.28;2073091;28;20374;-82
2024/04/14 01:31:29;;;;;;;2.58;2.35;;;;;;;9.70;100.00;93670.19;2081325;28;20025;-84
2024/04/14 01:32:34;;;;;;;3.55;2.45;;;;;;;9.76;100.00;93668.59;2082167;28;20470;-81
2024/04/14 01:33:35;;;;;;;3.38;2.40;;;;;;;9.73;100.00;93668.63;2089903;28;20086;-82
2024/04/14 01:34:36;;;;;;;3.05;2.65;;;;;;;9.77;100.00;93672.78;2089462;28;20029;-83
2024/04/14 01:35:37;;;;;;;2.63;2.42;;;;;;;9.79;100.00;93678.50;2089504;28;20032;-82
2024/04/14 01:36:38;;;;;;;2.35;2.15;;;;;;;9.73;100.00;93668.63;2089576;28;20477;-82
2024/04/14 01:37:39;;;;;;;5.03;2.20;;;;;;;9.66;100.00;93672.16;2089835;28;20024;-83
2024/04/14 01:38:41;;;;;;;3.53;2.22;;;;;;;9.55;100.00;93666.88;2089343;28;20044;-85
2024/04/14 01:39:42;;;;;;;2.70;2.50;;;;;;;9.40;100.00;93673.50;2089416;28;20382;-83
2024/04/14 01:40:43;;;;;;;2.47;2.28;;;;;;;9.62;100.00;93666.09;2089329;28;20092;-84
2024/04/14 01:41:44;;;;;;;2.30;2.10;;;;;;;9.67;100.00;93667.56;2104208;28;20027;-83
2024/04/14 01:42:45;;;;;;;2.53;2.33;;;;;;;9.54;100.00;93665.38;2105878;28;20119;-81
2024/04/14 01:43:46;;;;;;;3.70;2.47;;;;;;;9.51;100.00;93666.16;2089045;28;20044;-82
2024/04/14 01:44:47;;;;;;;3.47;2.50;;;;;;;9.41;100.00;93667.03;2097630;28;20024;-82
2024/04/14 01:45:48;;;;;;;3.13;2.67;;;;;;;9.60;100.00;93663.03;2105987;28;20096;-82
2024/04/14 01:46:49;;;;;;;3.70;2.60;;;;;;;9.59;100.00;93667.63;2094430;28;20052;-84
2024/04/14 01:47:50;;;;;;;3.85;2.35;;;;;;;9.65;100.00;93664.50;2080813;28;20021;-84
2024/04/14 01:48:51;;;;;;;3.33;2.53;;;;;;;9.73;100.00;93666.72;2080874;28;20068;-84
2024/04/14 01:49:52;;;;;;;3.63;2.60;;;;;;;9.63;100.00;93658.81;2080985;28;20259;-83
2024/04/14 01:50:53;;;;;;;6.43;2.83;;;;;;;9.40;100.00;93656.75;2072635;28;20041;-85
2024/04/14 01:51:58;;;;;;;3.17;2.85;;;;;;;9.24;100.00;93658.00;2082247;28;20033;-82
2024/04/14 01:52:59;;;;;;;5.20;3.03;;;;;;;9.15;100.00;93663.03;2089093;28;20493;-84
2024/04/14 01:54:00;;;;;;;3.53;2.65;;;;;;;9.27;100.00;93661.81;2080898;28;20379;-81
2024/04/14 01:55:01;;;;;;;4.13;3.08;;;;;;;9.18;100.00;93656.91;2073065;28;20037;-81
2024/04/14 01:56:02;;;;;;;4.93;3.08;;;;;;;9.12;100.00;93661.13;2087182;28;20108;-85
2024/04/14 01:57:04;;;;;;;5.70;3.40;;;;;;;8.98;100.00;93663.91;2097569;28;20024;-82
2024/04/14 01:58:05;;;;;;;4.40;3.80;;;;;;;8.97;100.00;93659.75;2097375;28;20024;-82
2024/04/14 01:59:08;;;;;;;6.80;3.90;;;;;;;8.92;100.00;93658.25;2086502;28;20072;-85
2024/04/14 02:00:10;;;;;;;6.53;4.05;;;;;;;8.89;100.00;93661.69;2097916;28;20536;-85
2024/04/14 02:01:11;;;;;;;6.53;4.28;;;;;;;8.91;100.00;93656.72;2097377;28;20448;-87
2024/04/14 02:02:12;;;;;;;5.38;3.97;;;;;;;9.02;100.00;93651.31;2085337;28;20032;-80
2024/04/14 02:03:13;;;;;;;4.35;3.75;;;;;;;9.11;100.00;93651.63;2097529;28;20024;-82
2024/04/14 02:04:14;;;;;;;6.70;4.60;;;;;;;9.13;100.00;93657.34;2097743;28;20025;-83
2024/04/14 02:05:15;;;;;;;5.38;4.15;;;;;;;9.17;100.00;93649.28;2089257;28;20553;-82
2024/04/14 02:06:16;;;;;;;5.20;4.30;;;;;;;9.11;100.00;93648.97;2082323;28;20378;-84
2024/04/14 02:07:17;;;;;;;5.28;3.60;;;;;;;9.16;100.00;93645.88;2089255;28;20025;-82
2024/04/14 02:08:19;;;;;;;4.22;3.50;;;;;;;9.12;100.00;93650.47;2081141;28;20021;-83
2024/04/14 02:09:20;;;;;;;5.15;3.45;;;;;;;9.11;100.00;93648.97;2084049;28;20048;-85
2024/04/14 02:10:21;;;;;;;3.72;3.25;;;;;;;9.08;100.00;93647.81;2097639;28;20036;-82
2024/04/14 02:11:26;;;;;;;3.70;3.38;;;;;;;9.08;100.00;93650.50;2098095;28;20059;-82
2024/04/14 02:12:27;;;;;;;4.18;2.72;;;;;;;9.14;100.00;93652.75;2098075;28;20063;-84
2024/04/14 02:13:28;;;;;;;3.22;2.92;;;;;;;9.01;100.00;93655.13;2105625;28;20854;-82
2024/04/14 02:14:29;;;;;;;3.03;2.60;;;;;;;9.06;100.00;93652.81;2097316;28;20035;-81
2024/04/14 02:15:30;;;;;;;3.97;2.92;;;;;;;9.32;100.00;93662.13;2092703;28;20032;-81
2024/04/14 02:16:31;;;;;;;2.80;2.38;;;;;;;9.37;100.00;93652.19;2102263;28;20027;-82
2024/04/14 02:17:32;;;;;;;2.83;2.63;;;;;;;9.31;100.00;93649.94;2088915;28;20028;-80
2024/04/14 02:18:34;;;;;;;2.65;2.42;;;;;;;9.20;100.00;93654.59;2080576;28;20037;-81
2024/04/14 02:19:35;;;;;;;2.92;2.47;;;;;;;9.22;100.00;93660.31;2091344;28;20124;-83
2024/04/14 02:20:36;;;;;;;2.80;2.50;;;;;;;9.16;100.00;93655.78;2097391;28;20039;-83
2024/04/14 02:21:37;;;;;;;3.17;2.67;;;;;;;9.21;100.00;93652.69;2097405;28;20021;-84
2024/04/14 02:22:38;;;;;;;2.80;2.53;;;;;;;9.24;100.00;93660.66;2097205;28;20491;-82
2024/04/14 02:23:40;;;;;;;3.90;2.70;;;;;;;9.49;100.00;93660.47;2091497;28;20017;-81
2024/04/14 02:24:41;;;;;;;3.35;2.40;;;;;;;9.46;100.00;93657.81;2097359;28;20062;-81
2024/04/14 02:27:47;;;;;;;;;;;;;;;7.91;100.00;93654.50;2141159;27;20185;-79
2024/04/14 02:28:55;;;;;;;3.15;2.67;;;;;;;7.98;100.00;93659.81;2138131;27;19946;-81
2024/04/14 02:29:57;;;;;;;2.50;2.30;;;;;;;7.95;100.00;93662.50;2138376;27;20481;-80
2024/04/14 02:30:59;;;;;;;2.85;2.58;;;;;;;7.92;100.00;93657.94;2138294;27;20471;-78
2024/04/14 02:32:04;;;;;;;3.35;3.05;;;;;;;7.92;100.00;93661.34;2138368;27;20055;-83
2024/04/14 02:33:06;;;;;;;2.53;2.33;;;;;;;7.87;100.00;93653.75;2129521;27;20110;-81
2024/04/14 02:34:07;;;;;;;3.00;2.70;;;;;;;7.83;100.00;93655.69;2129779;27;20030;-80
2024/04/14 02:35:09;;;;;;;2.90;2.55;;;;;;;7.93;100.00;93657.53;2126242;27;20555;-83
2024/04/14 02:36:10;;;;;;;4.80;2.75;;;;;;;7.79;100.00;93665.56;2104598;28;20057;-82
2024/04/14 02:37:11;;;;;;;4.13;2.63;;;;;;;7.80;100.00;93662.50;2118514;28;20495;-80
2024/04/14 02:38:12;;;;;;;3.60;2.95;;;;;;;7.80;100.00;93661.75;2110268;28;20047;-80
2024/04/14 02:39:13;;;;;;;4.25;2.53;;;;;;;7.91;100.00;93656.41;2114764;28;20031;-83
2024/04/14 02:40:14;;;;;;;3.03;2.50;;;;;;;7.89;100.00;93662.09;2127198;27;20030;-81
2024/04/14 02:41:15;;;;;;;4.85;2.97;;;;;;;7.87;100.00;93650.34;2124363;27;20026;-80
2024/04/14 02:42:16;;;;;;;3.67;2.55;;;;;;;7.98;100.00;93651.06;2125075;27;20038;-81
2024/04/14 02:43:18;;;;;;;2.92;2.70;;;;;;;7.84;100.00;93662.50;2112395;28;20042;-80
2024/04/14 02:44:19;;;;;;;3.60;2.78;;;;;;;7.78;100.00;93659.50;2112684;27;20012;-84
2024/04/14 02:45:20;;;;;;;4.40;2.67;;;;;;;7.91;100.00;93659.09;2116785;28;20387;-82
2024/04/14 02:46:24;;;;;;;5.00;2.70;;;;;;;7.93;100.00;93656.78;2116270;28;20277;-83
2024/04/14 02:47:25;;;;;;;3.60;2.50;;;;;;;8.07;100.00;93654.06;2115718;28;20028;-81
2024/04/14 02:48:27;;;;;;;3.22;2.92;;;;;;;8.04;100.00;93654.84;2111440;28;20016;-82
2024/04/14 02:49:28;;;;;;;2.83;2.30;;;;;;;7.98;100.00;93651.81;2116085;27;20459;-84
2024/04/14 02:50:29;;;;;;;2.85;2.50;;;;;;;7.99;100.00;93652.56;2120698;27;20110;-81
2024/04/14 02:51:30;;;;;;;3.63;2.30;;;;;;;7.89;100.00;93650.72;2121217;27;20030;-79
2024/04/14 02:52:32;;;;;;;2.40;2.20;;;;;;;7.86;100.00;93651.47;2107775;28;20021;-82
2024/04/14 02:53:33;;;;;;;2.80;2.60;;;;;;;7.86;100.00;93659.44;2108912;28;20024;-84
2024/04/14 02:54:34;;;;;;;2.50;2.30;;;;;;;7.76;100.00;93661.75;2116776;27;20801;-83
2024/04/14 02:55:36;;;;;;;3.63;2.50;;;;;;;7.71;100.00;93654.16;2126324;27;20102;-81
2024/04/14 02:56:37;;;;;;;3.42;2.50;;;;;;;7.72;100.00;93660.25;2124281;27;20113;-84
2024/04/14 02:57:38;;;;;;;4.18;2.53;;;;;;;7.80;100.00;93653.78;2118259;28;20019;-83
2024/04/14 02:58:39;;;;;;;3.10;2.42;;;;;;;7.94;100.00;93658.28;2114672;28;20019;-81
2024/04/14 02:59:40;;;;;;;2.65;2.38;;;;;;;7.76;100.00;93656.44;2127502;27;20019;-83
2024/04/14 03:00:41;;;;;;;4.55;2.35;;;;;;;7.73;100.00;93657.22;2114567;28;20045;-81
2024/04/14 03:01:45;;;;;;;3.40;2.47;;;;;;;7.55;100.00;93656.47;2110562;27;20047;-80
2024/04/14 03:02:46;;;;;;;3.85;2.47;;;;;;;7.64;100.00;93658.75;2108492;28;20025;-81
2024/04/14 03:03:48;;;;;;;3.58;2.22;;;;;;;7.65;100.00;93654.97;2112182;28;20039;-82
2024/04/14 03:04:49;;;;;;;5.50;2.40;;;;;;;7.70;100.00;93651.91;2121903;27;20403;-82
2024/04/14 03:06:01;;;;;;;3.33;2.42;;;;;;;7.63;100.00;93652.66;2119998;28;20030;-81
2024/04/14 03:07:02;;;;;;;2.72;2.53;;;;;;;7.59;100.00;93649.25;2114408;27;20151;-81
2024/04/14 03:08:06;;;;;;;4.53;2.42;;;;;;;7.53;100.00;93643.56;2128520;27;20030;-82
2024/04/14 03:09:07;;;;;;;5.15;2.15;;;;;;;7.60;100.00;93642.81;2111929;28;20096;-82
2024/04/14 03:10:08;;;;;;;2.38;2.17;;;;;;;7.73;100.00;93646.59;2118126;27;20088;-82
2024/04/14 03:11:09;;;;;;;4.22;2.25;;;;;;;7.72;100.00;93642.38;2118930;28;20050;-81
2024/04/14 03:12:10;;;;;;;2.97;2.28;;;;;;;7.66;100.00;93648.50;2105899;28;20473;-81
2024/04/14 03:13:11;;;;;;;2.28;2.08;;;;;;;7.66;100.00;93643.94;2108025;27;20031;-82
2024/04/14 03:14:12;;;;;;;2.65;2.22;;;;;;;7.63;100.00;93646.59;2126995;27;20069;-82
2024/04/14 03:15:13;;;;;;;2.55;2.35;;;;;;;7.72;100.00;93649.59;2123252;27;20063;-82
2024/04/14 03:16:14;;;;;;;2.28;2.08;;;;;;;7.70;100.00;93641.25;2112453;28;20133;-80
2024/04/14 03:17:16;;;;;;;4.22;2.40;;;;;;;7.70;100.00;93641.25;2103894;28;20024;-82
2024/04/14 03:18:17;;;;;;;2.58;2.00;;;;;;;7.75;100.00;93640.88;2107092;27;20555;-80
2024/04/14 03:19:18;;;;;;;2.20;2.00;;;;;;;7.84;100.00;93641.22;2112278;28;20031;-81
2024/04/14 03:20:19;;;;;;;3.88;2.58;;;;;;;7.78;100.00;93643.53;2117687;28;20366;-80
2024/04/14 03:21:21;;;;;;;2.40;2.20;;;;;;;7.80;100.00;93637.81;2121459;28;20725;-79
2024/04/14 03:22:22;;;;;;;3.28;2.20;;;;;;;7.72;100.00;93633.63;2120744;28;20035;-86
2024/04/14 03:23:24;;;;;;;2.63;2.40;;;;;;;7.78;100.00;93637.44;2112059;28;20024;-84
2024/04/14 03:24:25;;;;;;;2.85;2.55;;;;;;;7.79;100.00;93634.38;2120687;27;20031;-82
2024/04/14 03:25:26;;;;;;;2.50;2.03;;;;;;;7.75;100.00;93635.53;2111048;28;20114;-81
2024/04/14 03:26:27;;;;;;;4.18;2.10;;;;;;;7.79;100.00;93639.72;2112437;28;20107;-80
2024/04/14 03:27:30;;;;;;;2.75;2.00;;;;;;;7.75;100.00;93633.63;2124936;27;20027;-80
2024/04/14 03:28:31;;;;;;;3.05;2.25;;;;;;;7.71;100.00;93640.13;2128574;27;20038;-80
2024/04/14 03:29:32;;;;;;;3.80;2.22;;;;;;;7.72;100.00;93639.72;2112241;28;20730;-79
2024/04/14 03:30:33;;;;;;;2.35;2.13;;;;;;;7.65;100.00;93636.34;2112547;28;20028;-79
2024/04/14 03:31:34;;;;;;;4.28;2.20;;;;;;;7.68;100.00;93633.69;2125461;27;20516;-81
2024/04/14 03:32:35;;;;;;;3.67;2.30;;;;;;;7.72;100.00;93638.97;2121134;27;20047;-84
2024/04/14 03:33:37;;;;;;;3.97;2.50;;;;;;;7.69;100.00;93634.44;2120697;28;20027;-79
2024/04/14 03:34:38;;;;;;;3.00;2.00;;;;;;;7.70;100.00;93636.69;2126474;27;20097;-81
2024/04/14 03:35:39;;;;;;;2.55;2.35;;;;;;;7.73;100.00;93633.28;2129142;27;20479;-81
2024/04/14 03:36:40;;;;;;;5.93;2.42;;;;;;;7.73;100.00;93640.50;2129264;27;20026;-84
2024/04/14 03:37:41;;;;;;;2.63;2.40;;;;;;;7.70;100.00;93633.28;2127005;27;20441;-81
2024/04/14 03:38:42;;;;;;;2.63;2.30;;;;;;;7.64;100.00;93632.91;2117657;28;20039;-83
2024/04/14 03:39:43;;;;;;;3.25;2.60;;;;;;;7.58;100.00;93640.50;2098106;28;20597;-81
2024/04/14 03:40:54;;;;;;;2.25;2.05;;;;;;;7.64;100.00;93632.13;2098431;28;20370;-82
2024/04/14 03:41:56;;;;;;;2.42;2.22;;;;;;;7.65;100.00;93633.69;2117309;27;20023;-80
2024/04/14 03:42:57;;;;;;;2.92;2.08;;;;;;;7.67;100.00;93637.47;2115446;28;20114;-82
2024/04/14 03:43:58;;;;;;;2.50;2.30;;;;;;;7.78;100.00;93630.22;2106569;28;20646;-81
2024/04/14 03:45:02;;;;;;;2.08;1.92;;;;;;;7.79;100.00;93630.97;2119248;27;20023;-84
2024/04/14 03:46:03;;;;;;;4.57;2.30;;;;;;;7.76;100.00;93629.06;2123240;27;20046;-81
2024/04/14 03:47:04;;;;;;;4.70;2.10;;;;;;;7.79;100.00;93628.31;2106305;28;20110;-80
2024/04/14 03:48:05;;;;;;;2.95;2.30;;;;;;;7.80;100.00;93627.91;2098076;28;20100;-84
2024/04/14 03:49:07;;;;;;;2.55;2.35;;;;;;;7.80;100.00;93625.25;2091327;28;20033;-83
2024/04/14 03:50:08;;;;;;;3.80;1.75;;;;;;;7.76;100.00;93629.81;2108035;27;20024;-80
2024/04/14 03:51:09;;;;;;;2.30;2.10;;;;;;;7.90;100.00;93629.06;2123253;27;20059;-82
2024/04/14 03:52:11;;;;;;;2.03;1.92;;;;;;;7.80;100.00;93619.19;2108606;27;20078;-82
2024/04/14 03:53:13;;;;;;;2.13;1.90;;;;;;;7.83;100.00;93623.75;2106628;28;20032;-83
2024/04/14 03:54:14;;;;;;;2.17;1.98;;;;;;;7.71;100.00;93624.91;2106471;28;20501;-83
2024/04/14 03:55:15;;;;;;;2.15;1.98;;;;;;;7.66;100.00;93619.22;2106174;28;20027;-83
2024/04/14 03:56:17;;;;;;;2.25;1.80;;;;;;;7.60;100.00;93621.53;2097918;28;20051;-79
2024/04/14 03:57:18;;;;;;;1.88;1.77;;;;;;;7.54;100.00;93626.47;2111953;28;20051;-79
2024/04/14 03:58:19;;;;;;;2.05;1.90;;;;;;;7.62;100.00;93627.22;2114658;28;20023;-80
2024/04/14 03:59:20;;;;;;;3.45;1.85;;;;;;;7.66;100.00;93619.97;2113854;28;20047;-80
2024/04/14 04:00:21;;;;;;;2.55;1.90;;;;;;;7.63;100.00;93625.31;2114536;28;20095;-83
2024/04/14 04:01:22;;;;;;;2.20;1.90;;;;;;;7.66;100.00;93617.31;2097889;28;20393;-83
2024/04/14 04:02:23;;;;;;;2.38;1.90;;;;;;;7.59;100.00;93619.97;2093344;28;20413;-79
2024/04/14 04:03:24;;;;;;;3.38;1.90;;;;;;;7.52;100.00;93620.03;2106305;28;20040;-81
2024/04/14 04:04:25;;;;;;;2.47;2.28;;;;;;;7.54;100.00;93618.47;2114862;27;20028;-82
2024/04/14 04:05:26;;;;;;;2.25;2.05;;;;;;;7.49;100.00;93616.22;2111798;28;20090;-81
2024/04/14 04:06:27;;;;;;;2.40;2.10;;;;;;;7.44;100.00;93616.59;2114764;28;20024;-82
2024/04/14 04:07:28;;;;;;;2.42;2.10;;;;;;;7.51;100.00;93627.25;2119583;27;20023;-82
2024/04/14 04:08:29;;;;;;;2.53;2.15;;;;;;;7.47;100.00;93631.06;2110499;28;20500;-82
2024/04/14 04:09:30;;;;;;;2.20;2.00;;;;;;;7.42;100.00;93624.22;2097679;28;20086;-79
2024/04/14 04:10:31;;;;;;;2.50;1.98;;;;;;;7.43;100.00;93622.31;2097959;28;20032;-80
2024/04/14 04:11:32;;;;;;;2.35;2.10;;;;;;;7.43;100.00;93617.75;2106460;28;20020;-80
2024/04/14 04:12:35;;;;;;;4.82;2.00;;;;;;;7.50;100.00;93617.72;2099307;28;20147;-81
2024/04/14 04:13:36;;;;;;;2.47;2.28;;;;;;;7.42;100.00;93621.56;2098205;28;20020;-81
2024/04/14 04:14:37;;;;;;;2.70;2.35;;;;;;;7.37;100.00;93613.94;2106346;28;20027;-81
2024/04/14 04:15:38;;;;;;;2.47;1.90;;;;;;;7.39;100.00;93611.69;2114706;28;20098;-83
2024/04/14 04:16:39;;;;;;;4.38;2.30;;;;;;;7.39;100.00;93614.34;2114678;28;20023;-80
2024/04/14 04:17:40;;;;;;;2.15;1.88;;;;;;;7.38;100.00;93612.81;2123317;27;20042;-83
2024/04/14 04:18:41;;;;;;;3.80;2.35;;;;;;;7.47;100.00;93613.19;2114744;28;20034;-80
2024/04/14 04:19:42;;;;;;;2.10;1.92;;;;;;;7.46;100.00;93611.69;2114631;27;20023;-80
2024/04/14 04:20:55;;;;;;;3.72;2.13;;;;;;;7.40;100.00;93618.50;2108074;28;20028;-82
2024/04/14 04:22:03;;;;;;;2.50;2.20;;;;;;;7.43;100.00;93619.66;2100510;28;20024;-81
2024/04/14 04:23:04;;;;;;;2.58;2.10;;;;;;;7.45;100.00;93625.34;2107182;28;20032;-83
2024/04/14 04:24:05;;;;;;;2.60;2.40;;;;;;;7.43;100.00;93614.34;2106400;28;20028;-80
2024/04/14 04:25:06;;;;;;;2.10;2.00;;;;;;;7.43;100.00;93620.41;2097837;28;20036;-82
2024/04/14 04:26:07;;;;;;;3.22;2.25;;;;;;;7.37;100.00;93613.19;2114619;28;20027;-82
2024/04/14 04:27:08;;;;;;;2.38;2.17;;;;;;;7.33;100.00;93626.50;2120471;27;20057;-82
2024/04/14 04:28:09;;;;;;;2.55;2.20;;;;;;;7.32;100.00;93619.66;2122892;27;20051;-82
2024/04/14 04:29:10;;;;;;;3.78;2.50;;;;;;;7.30;100.00;93617.41;2106151;28;20085;-79
2024/04/14 04:30:11;;;;;;;5.18;2.50;;;;;;;7.36;100.00;93627.63;2106009;28;20046;-81
2024/04/14 04:31:13;;;;;;;3.38;2.80;;;;;;;7.37;100.00;93626.50;2114649;28;20427;-81
2024/04/14 04:32:16;;;;;;;2.80;2.60;;;;;;;7.21;100.00;93619.69;2104017;28;20115;-81
2024/04/14 04:33:17;;;;;;;2.90;2.45;;;;;;;7.30;100.00;93627.28;2098613;28;20020;-82
2024/04/14 04:34:18;;;;;;;2.92;2.40;;;;;;;7.19;100.00;93619.28;2114600;28;20023;-80
2024/04/14 04:35:19;;;;;;;3.75;2.53;;;;;;;7.22;100.00;93628.41;2117332;27;20385;-80
2024/04/14 04:36:22;;;;;;;4.80;2.70;;;;;;;7.31;100.00;93631.44;2098202;28;20028;-81
2024/04/14 04:37:23;;;;;;;3.00;2.70;;;;;;;7.36;100.00;93628.41;2106735;27;20488;-84
2024/04/14 04:38:25;;;;;;;2.70;2.45;;;;;;;7.28;100.00;93626.88;2123247;27;20057;-81
2024/04/14 04:39:29;;;;;;;3.40;2.80;;;;;;;7.39;100.00;93632.97;2123155;27;20027;-82
2024/04/14 04:40:30;;;;;;;4.25;2.75;;;;;;;7.48;100.00;93630.66;2122972;27;20019;-82
2024/04/14 04:41:31;;;;;;;3.00;2.67;;;;;;;7.45;100.00;93628.00;2123092;27;20030;-82
2024/04/14 04:42:32;;;;;;;3.53;3.03;;;;;;;7.40;100.00;93631.06;2106527;28;20020;-81
2024/04/14 04:43:36;;;;;;;5.20;2.75;;;;;;;7.48;100.00;93630.66;2106294;28;20075;-81
2024/04/14 04:44:37;;;;;;;4.63;3.03;;;;;;;7.37;100.00;93637.88;2106485;28;20055;-82
2024/04/14 04:45:38;;;;;;;3.03;2.70;;;;;;;7.42;100.00;93628.75;2107275;27;20020;-81
2024/04/14 04:46:39;;;;;;;3.42;2.78;;;;;;;7.51;100.00;93629.16;2102003;28;20028;-80
2024/04/14 04:47:40;;;;;;;3.25;2.95;;;;;;;7.54;100.00;93628.38;2114273;27;20043;-83
2024/04/14 04:48:41;;;;;;;4.47;2.72;;;;;;;7.56;100.00;93626.09;2123665;27;20019;-80
2024/04/14 04:49:42;;;;;;;3.67;2.85;;;;;;;7.51;100.00;93631.81;2107855;28;20637;-82
2024/04/14 04:50:46;;;;;;;3.20;2.90;;;;;;;7.64;100.00;93632.13;2088069;28;20029;-83